Time;durP1;ratioP1;P1;durP2;ratioP2;P2;SDS_P1;SDS_P2;PMS_P1;PMS_P2;Temp;Humidity;BMP_temperature;BMP_pressure;BME280_temperature;BME280_humidity;BME280_pressure;Samples;Min_cycle;Max_cycle;Signal;HPM_P1;HPM_P2
2022/12/02 00:01:48;;;;;;;74.78;36.58;;;4.40;99.90;;;;;;5090793;28;20036;-55
2022/12/02 00:04:26;;;;;;;77.97;38.35;;;4.40;99.90;;;;;;5090301;28;20073;-52
2022/12/02 00:06:53;;;;;;;75.45;36.50;;;4.40;99.90;;;;;;5090756;28;20068;-54
2022/12/02 00:09:30;;;;;;;87.53;41.05;;;4.40;99.90;;;;;;5090689;28;20044;-55
2022/12/02 00:11:56;;;;;;;;;;;4.40;99.90;;;;;;5090596;28;20086;-55
2022/12/02 00:14:28;;;;;;;83.20;37.78;;;4.30;99.90;;;;;;5090075;28;20411;-56
2022/12/02 00:16:55;;;;;;;82.80;37.78;;;4.30;99.90;;;;;;5084428;28;20507;-55
2022/12/02 00:19:21;;;;;;;83.40;36.70;;;4.30;99.90;;;;;;5069902;28;20048;-55
2022/12/02 00:21:48;;;;;;;79.55;37.47;;;4.20;99.90;;;;;;5070288;28;20390;-54
2022/12/02 00:24:15;;;;;;;79.47;36.80;;;4.20;99.90;;;;;;5069276;28;20067;-53
2022/12/02 00:26:41;;;;;;;;;;;4.20;99.90;;;;;;5070890;28;20090;-55
2022/12/02 00:29:06;;;;;;;80.07;35.63;;;4.20;99.90;;;;;;5070078;28;19917;-54
2022/12/02 00:31:32;;;;;;;79.23;35.07;;;4.20;99.90;;;;;;5070268;28;20028;-56
2022/12/02 00:33:59;;;;;;;78.73;36.73;;;4.20;99.90;;;;;;5068430;28;20097;-55
2022/12/02 00:36:25;;;;;;;62.60;31.48;;;4.20;99.90;;;;;;5076875;28;20044;-57
2022/12/02 00:38:51;;;;;;;62.20;31.52;;;4.20;99.90;;;;;;5071892;28;20051;-57
2022/12/02 00:41:16;;;;;;;61.03;31.00;;;4.10;99.90;;;;;;5090194;28;20032;-56
2022/12/02 00:46:32;;;;;;;58.72;28.63;;;4.10;99.90;;;;;;5090025;28;20044;-57
2022/12/02 00:49:06;;;;;;;55.38;27.70;;;4.10;99.90;;;;;;5090463;28;20114;-58
2022/12/02 00:51:33;;;;;;;50.30;26.85;;;4.00;99.90;;;;;;5089750;28;20413;-55
2022/12/02 00:53:58;;;;;;;;;;;4.00;99.90;;;;;;5091795;28;20047;-56
2022/12/02 00:56:24;;;;;;;53.78;26.23;;;4.00;99.90;;;;;;5094205;28;19916;-56
2022/12/02 00:58:50;;;;;;;45.60;23.70;;;4.00;99.90;;;;;;5094241;28;20040;-59
2022/12/02 01:01:16;;;;;;;48.88;23.92;;;4.00;99.90;;;;;;5067785;28;20507;-52
2022/12/02 01:03:41;;;;;;;41.72;22.92;;;4.00;99.90;;;;;;5054700;28;20078;-56
2022/12/02 01:06:07;;;;;;;47.80;23.77;;;3.90;99.90;;;;;;5066085;28;20483;-55
2022/12/02 01:08:33;;;;;;;40.47;20.57;;;3.90;99.90;;;;;;5079169;28;20044;-55
2022/12/02 01:10:59;;;;;;;44.65;21.83;;;3.90;99.90;;;;;;5067420;28;20498;-55
2022/12/02 01:13:26;;;;;;;40.83;20.60;;;3.80;99.90;;;;;;5052098;28;20036;-56
2022/12/02 01:15:52;;;;;;;44.28;23.42;;;3.80;99.90;;;;;;5070141;28;20051;-53
2022/12/02 01:18:17;;;;;;;46.60;24.65;;;3.80;99.90;;;;;;5063251;28;20033;-55
2022/12/02 01:20:43;;;;;;;41.17;23.00;;;3.80;99.90;;;;;;5055227;28;20508;-57
2022/12/02 01:23:08;;;;;;;47.50;24.00;;;3.80;99.90;;;;;;5064216;28;20111;-53
2022/12/02 01:25:34;;;;;;;44.23;23.20;;;3.80;99.90;;;;;;5090965;28;20036;-55
2022/12/02 01:28:00;;;;;;;42.80;22.93;;;3.80;99.90;;;;;;5080102;28;20047;-55
2022/12/02 01:30:25;;;;;;;40.90;21.90;;;3.70;99.90;;;;;;5073604;28;20040;-56
2022/12/02 01:32:51;;;;;;;45.20;23.23;;;3.70;99.90;;;;;;5073206;28;20068;-60
2022/12/02 01:35:17;;;;;;;40.37;22.13;;;3.70;99.90;;;;;;5082554;28;20105;-52
2022/12/02 01:37:43;;;;;;;48.22;23.15;;;3.70;99.90;;;;;;5092071;28;20075;-53
2022/12/02 01:40:10;;;;;;;44.60;23.03;;;3.70;99.90;;;;;;5079961;28;20044;-54
2022/12/02 01:42:36;;;;;;;47.28;22.95;;;3.70;99.90;;;;;;5072857;28;20116;-59
2022/12/02 01:45:02;;;;;;;;;;;3.70;99.90;;;;;;5073199;28;20036;-56
2022/12/02 01:47:28;;;;;;;50.70;23.38;;;3.60;99.90;;;;;;5073105;28;19922;-57
2022/12/02 01:49:54;;;;;;;45.30;24.53;;;3.70;99.90;;;;;;5072585;28;20067;-52
2022/12/02 01:52:19;;;;;;;42.22;22.70;;;3.70;99.90;;;;;;5072983;28;20489;-53
2022/12/02 01:54:45;;;;;;;48.10;24.00;;;3.70;99.90;;;;;;5072527;28;20421;-56
2022/12/02 01:57:13;;;;;;;48.93;25.17;;;3.70;99.90;;;;;;5072813;28;20332;-55
2022/12/02 01:59:42;;;;;;;44.40;25.63;;;3.70;99.90;;;;;;5072790;28;20044;-56
2022/12/02 02:02:28;;;;;;;46.30;23.90;;;3.70;99.90;;;;;;5091527;28;20097;-56
2022/12/02 02:04:56;;;;;;;51.03;25.23;;;3.70;99.90;;;;;;5092564;28;20047;-57
2022/12/02 02:07:22;;;;;;;46.22;23.05;;;3.70;99.90;;;;;;5092669;28;20036;-57
2022/12/02 02:09:48;;;;;;;50.13;26.80;;;3.70;99.90;;;;;;5078878;28;20526;-54
2022/12/02 02:12:14;;;;;;;46.33;25.20;;;3.70;99.90;;;;;;5070898;28;20333;-54
2022/12/02 02:14:39;;;;;;;45.90;23.67;;;3.60;99.90;;;;;;5067292;28;20033;-58
2022/12/02 02:17:06;;;;;;;44.90;22.67;;;3.60;99.90;;;;;;5052581;28;20037;-56
2022/12/02 02:19:32;;;;;;;50.70;24.75;;;3.70;99.90;;;;;;5056720;28;20044;-57
2022/12/02 02:21:58;;;;;;;48.37;24.30;;;3.60;99.90;;;;;;5062737;28;20033;-55
2022/12/02 02:24:23;;;;;;;48.85;24.65;;;3.60;99.90;;;;;;5061126;28;20120;-56
2022/12/02 02:26:49;;;;;;;48.77;25.03;;;3.60;99.90;;;;;;5090582;28;20511;-55
2022/12/02 02:29:15;;;;;;;50.77;23.97;;;3.60;99.90;;;;;;5074497;28;20442;-57
2022/12/02 02:31:41;;;;;;;45.83;24.10;;;3.60;99.90;;;;;;5072550;28;20051;-56
2022/12/02 02:34:07;;;;;;;46.05;24.30;;;3.60;99.90;;;;;;5071892;28;20032;-58
2022/12/02 02:36:33;;;;;;;48.80;25.42;;;3.60;99.90;;;;;;5072280;28;20052;-52
2022/12/02 02:38:59;;;;;;;38.65;22.25;;;3.60;99.90;;;;;;5090731;28;20094;-55
2022/12/02 02:41:25;;;;;;;42.47;23.27;;;3.60;99.90;;;;;;5074952;28;20044;-55
2022/12/02 02:43:51;;;;;;;46.70;23.58;;;3.60;99.90;;;;;;5071055;28;20037;-56
2022/12/02 02:46:17;;;;;;;46.03;22.33;;;3.60;99.90;;;;;;5072146;28;20047;-55
2022/12/02 02:48:43;;;;;;;43.63;23.88;;;3.60;99.90;;;;;;5072065;28;20040;-53
2022/12/02 02:51:11;;;;;;;45.38;24.13;;;3.60;99.90;;;;;;5071956;28;20046;-56
2022/12/02 02:53:36;;;;;;;42.13;22.20;;;3.60;99.90;;;;;;5070025;28;20497;-55
2022/12/02 02:56:02;;;;;;;41.47;21.83;;;3.60;99.90;;;;;;5071764;28;20076;-55
2022/12/02 02:58:28;;;;;;;45.15;23.00;;;3.60;99.90;;;;;;5070976;28;20078;-55
2022/12/02 03:01:06;;;;;;;39.40;20.80;;;3.60;99.90;;;;;;5071502;28;20036;-60
2022/12/02 03:03:34;;;;;;;43.97;22.45;;;3.60;99.90;;;;;;5071508;28;20490;-54
2022/12/02 03:06:02;;;;;;;47.38;22.75;;;3.60;99.90;;;;;;5071850;28;20037;-56
2022/12/02 03:08:30;;;;;;;43.53;22.55;;;3.60;99.90;;;;;;5070840;28;20049;-55
2022/12/02 03:10:58;;;;;;;45.10;21.30;;;3.50;99.90;;;;;;5069960;28;20077;-56
2022/12/02 03:13:25;;;;;;;42.67;23.52;;;3.50;99.90;;;;;;5069704;28;20094;-52
2022/12/02 03:15:51;;;;;;;41.60;21.63;;;3.60;99.90;;;;;;5050769;28;20077;-55
2022/12/02 03:18:17;;;;;;;45.58;22.92;;;3.50;99.90;;;;;;5051367;28;20087;-56
2022/12/02 03:20:43;;;;;;;42.55;21.80;;;3.50;99.90;;;;;;5051175;28;20039;-56
2022/12/02 03:23:09;;;;;;;38.92;21.02;;;3.50;99.90;;;;;;5050881;28;20032;-57
2022/12/02 03:25:35;;;;;;;42.77;22.87;;;3.50;99.90;;;;;;5058942;28;20546;-56
2022/12/02 03:28:01;;;;;;;36.85;21.83;;;3.50;99.90;;;;;;5069555;28;20043;-57
2022/12/02 03:30:26;;;;;;;48.63;24.05;;;3.50;99.90;;;;;;5061363;28;20211;-52
2022/12/02 03:32:52;;;;;;;46.87;23.10;;;3.50;99.90;;;;;;5063638;28;20085;-57
2022/12/02 03:35:18;;;;;;;44.17;22.92;;;3.50;99.90;;;;;;5068877;28;20116;-53
2022/12/02 03:37:44;;;;;;;43.35;23.65;;;3.50;99.90;;;;;;5059555;28;20512;-56
2022/12/02 03:40:10;;;;;;;46.57;24.60;;;3.50;99.90;;;;;;5068731;28;20115;-54
2022/12/02 03:42:36;;;;;;;43.28;22.85;;;3.50;99.90;;;;;;5065952;28;20028;-56
2022/12/02 03:45:02;;;;;;;47.72;23.23;;;3.40;99.90;;;;;;5050784;28;20539;-52
2022/12/02 03:47:28;;;;;;;49.45;25.58;;;3.50;99.90;;;;;;5049246;28;20051;-58
2022/12/02 03:49:54;;;;;;;47.53;24.75;;;3.50;99.90;;;;;;5050825;28;20033;-55
2022/12/02 03:52:20;;;;;;;61.87;26.07;;;3.50;99.90;;;;;;5049250;28;20186;-54
2022/12/02 03:54:45;;;;;;;58.23;27.63;;;3.40;99.90;;;;;;5053632;28;20344;-57
2022/12/02 03:57:11;;;;;;;60.83;28.37;;;3.40;99.90;;;;;;5069456;28;20445;-56
2022/12/02 03:59:36;;;;;;;59.77;27.97;;;3.40;99.90;;;;;;5070301;28;20087;-52
2022/12/02 04:02:02;;;;;;;53.30;27.00;;;3.50;99.90;;;;;;5070384;28;20040;-53
2022/12/02 04:04:28;;;;;;;58.23;28.23;;;3.50;99.90;;;;;;5070299;28;20148;-55
2022/12/02 04:06:53;;;;;;;50.90;25.73;;;3.40;99.90;;;;;;5070328;28;20032;-54
2022/12/02 04:09:19;;;;;;;52.70;26.08;;;3.40;99.90;;;;;;5068655;28;20048;-55
2022/12/02 04:11:45;;;;;;;52.47;24.90;;;3.50;99.90;;;;;;5070377;28;20071;-55
2022/12/02 04:14:10;;;;;;;54.20;25.87;;;3.50;99.90;;;;;;5077795;28;20496;-52
2022/12/02 04:16:36;;;;;;;54.53;27.00;;;3.50;99.90;;;;;;5090713;28;20476;-54
2022/12/02 04:19:01;;;;;;;56.33;25.43;;;3.50;99.90;;;;;;5090248;28;20263;-54
2022/12/02 04:21:27;;;;;;;61.70;25.80;;;3.40;99.90;;;;;;5070593;28;20052;-53
2022/12/02 04:23:53;;;;;;;62.83;30.13;;;3.40;99.90;;;;;;5049207;28;20036;-53
2022/12/02 04:26:19;;;;;;;54.50;26.40;;;3.40;99.90;;;;;;5050313;28;20045;-57
2022/12/02 04:28:45;;;;;;;57.83;26.38;;;3.40;99.90;;;;;;5049210;28;20048;-57
2022/12/02 04:31:13;;;;;;;57.22;25.83;;;3.40;99.90;;;;;;5051280;28;20041;-55
2022/12/02 04:33:39;;;;;;;55.80;25.20;;;3.40;99.90;;;;;;5049813;28;20041;-54
2022/12/02 04:36:05;;;;;;;75.33;27.83;;;3.40;99.90;;;;;;5051364;28;20029;-57
2022/12/02 04:38:30;;;;;;;54.03;25.27;;;3.40;99.90;;;;;;5056464;28;20033;-52
2022/12/02 04:40:56;;;;;;;48.80;23.00;;;3.40;99.90;;;;;;5054654;28;20282;-53
2022/12/02 04:43:21;;;;;;;50.67;23.27;;;3.40;99.90;;;;;;5052293;28;20029;-54
2022/12/02 04:45:47;;;;;;;52.50;25.57;;;3.40;99.90;;;;;;5070382;28;20116;-59
2022/12/02 04:48:12;;;;;;;49.77;23.50;;;3.40;99.90;;;;;;5070007;28;20041;-56
2022/12/02 04:50:38;;;;;;;48.70;25.40;;;3.40;99.90;;;;;;5070271;28;20389;-53
2022/12/02 04:53:04;;;;;;;58.03;26.67;;;3.40;99.90;;;;;;5069138;28;20042;-55
2022/12/02 04:55:29;;;;;;;56.53;25.87;;;3.40;99.90;;;;;;5067936;28;20562;-55
2022/12/02 04:57:55;;;;;;;50.87;23.73;;;3.40;99.90;;;;;;5049648;28;20044;-53
2022/12/02 05:00:20;;;;;;;55.67;24.97;;;3.40;99.90;;;;;;5049737;28;20032;-58
2022/12/02 05:02:46;;;;;;;53.07;25.87;;;3.30;99.90;;;;;;5049629;28;20033;-57
2022/12/02 05:05:12;;;;;;;58.30;25.60;;;3.40;99.90;;;;;;5049668;28;20052;-57
2022/12/02 05:07:37;;;;;;;58.85;25.83;;;3.30;99.90;;;;;;5049843;28;20064;-56
2022/12/02 05:10:04;;;;;;;51.77;26.03;;;3.30;99.90;;;;;;5049873;28;20575;-58
2022/12/02 05:12:30;;;;;;;55.80;26.98;;;3.30;99.90;;;;;;5048354;28;20474;-58
2022/12/02 05:14:55;;;;;;;58.50;27.60;;;3.30;99.90;;;;;;5049251;28;20044;-56
2022/12/02 05:17:21;;;;;;;56.43;27.53;;;3.30;99.90;;;;;;5049557;28;20045;-58
2022/12/02 05:19:46;;;;;;;58.60;27.70;;;3.30;99.90;;;;;;5049461;28;20047;-55
2022/12/02 05:22:12;;;;;;;55.85;26.50;;;3.30;99.90;;;;;;5049324;28;20065;-54
2022/12/02 05:24:37;;;;;;;61.30;29.17;;;3.30;99.90;;;;;;5049168;28;20037;-53
2022/12/02 05:27:03;;;;;;;59.30;27.53;;;3.30;99.90;;;;;;5049724;28;20033;-57
2022/12/02 05:29:29;;;;;;;57.00;24.93;;;3.30;99.90;;;;;;5049661;28;20045;-56
2022/12/02 05:31:54;;;;;;;56.47;26.70;;;3.30;99.90;;;;;;5059196;28;20047;-56
2022/12/02 05:34:20;;;;;;;61.67;28.23;;;3.30;99.90;;;;;;5089384;28;20105;-55
2022/12/02 05:36:45;;;;;;;60.03;27.80;;;3.30;99.90;;;;;;5089259;28;20070;-54
2022/12/02 05:39:11;;;;;;;65.40;27.95;;;3.30;99.90;;;;;;5081831;28;20429;-54
2022/12/02 05:41:37;;;;;;;71.23;28.27;;;3.30;99.90;;;;;;5057192;28;20536;-55
2022/12/02 05:44:17;;;;;;;61.10;28.05;;;3.30;99.90;;;;;;5070387;28;20394;-57
2022/12/02 05:46:42;;;;;;;69.93;28.65;;;3.30;99.90;;;;;;5056895;28;20124;-56
2022/12/02 05:49:18;;;;;;;62.37;27.33;;;3.30;99.90;;;;;;5054976;28;20125;-55
2022/12/02 05:51:44;;;;;;;67.22;28.73;;;3.30;99.90;;;;;;5061656;28;20091;-53
2022/12/02 05:54:17;;;;;;;66.60;30.42;;;3.30;99.90;;;;;;5051449;28;20053;-55
2022/12/02 05:56:43;;;;;;;66.72;29.48;;;3.30;99.90;;;;;;5072088;28;20051;-57
2022/12/02 05:59:13;;;;;;;64.27;28.40;;;3.30;99.90;;;;;;5074891;28;20127;-52
2022/12/02 06:01:40;;;;;;;68.63;29.75;;;3.30;99.90;;;;;;5092709;28;20457;-56
2022/12/02 06:04:13;;;;;;;65.68;28.70;;;3.30;99.90;;;;;;5092661;28;20111;-55
2022/12/02 06:06:39;;;;;;;65.55;29.40;;;3.30;99.90;;;;;;5092621;28;20089;-52
2022/12/02 06:09:14;;;;;;;65.43;30.88;;;3.30;99.90;;;;;;5073419;28;20446;-52
2022/12/02 06:11:40;;;;;;;68.30;30.05;;;3.30;99.90;;;;;;5072667;28;20067;-57
2022/12/02 06:14:15;;;;;;;62.63;29.47;;;3.30;99.90;;;;;;5072497;28;20041;-54
2022/12/02 06:16:46;;;;;;;64.50;29.85;;;3.30;99.90;;;;;;5072767;28;20048;-52
2022/12/02 06:19:32;;;;;;;73.25;31.85;;;3.30;99.90;;;;;;5072651;28;20090;-52
2022/12/02 06:22:00;;;;;;;71.78;30.20;;;3.30;99.90;;;;;;5072506;28;20037;-56
2022/12/02 06:24:29;;;;;;;64.20;28.00;;;3.30;99.90;;;;;;5054039;28;20119;-52
2022/12/02 06:26:58;;;;;;;69.50;30.55;;;3.30;99.90;;;;;;5071973;28;20046;-56
2022/12/02 06:29:26;;;;;;;72.10;31.52;;;3.30;99.90;;;;;;5071029;28;20366;-53
2022/12/02 06:31:52;;;;;;;64.63;30.45;;;3.30;99.90;;;;;;5072065;28;20382;-55
2022/12/02 06:34:35;;;;;;;76.38;31.70;;;3.30;99.90;;;;;;5071811;28;20083;-55
2022/12/02 06:37:21;;;;;;;71.38;29.65;;;3.30;99.90;;;;;;5085570;28;20039;-56
2022/12/02 06:39:54;;;;;;;65.78;29.65;;;3.30;99.90;;;;;;5092379;28;20036;-58
2022/12/02 06:42:34;;;;;;;72.80;32.10;;;3.30;99.90;;;;;;5092261;28;20032;-53
2022/12/02 06:45:22;;;;;;;73.43;31.08;;;3.30;99.90;;;;;;5079209;28;20654;-52
2022/12/02 06:48:03;;;;;;;70.35;28.35;;;3.30;99.90;;;;;;5060116;28;20055;-56
2022/12/02 06:50:49;;;;;;;65.93;30.48;;;3.30;99.90;;;;;;5051642;28;20032;-55
2022/12/02 06:53:38;;;;;;;63.17;28.58;;;3.30;99.90;;;;;;5057237;28;20052;-57
2022/12/02 06:56:20;;;;;;;65.53;30.08;;;3.30;99.90;;;;;;5052295;28;20039;-57
2022/12/02 06:58:49;;;;;;;66.13;29.77;;;3.30;99.90;;;;;;5059107;28;20048;-54
2022/12/02 07:01:23;;;;;;;66.97;30.23;;;3.30;99.90;;;;;;5071553;28;20551;-55
2022/12/02 07:04:09;;;;;;;77.50;32.35;;;3.30;99.90;;;;;;5071082;28;20097;-58
2022/12/02 07:06:40;;;;;;;69.53;31.17;;;3.20;99.90;;;;;;5058828;28;20040;-57
2022/12/02 07:09:19;;;;;;;65.20;29.65;;;3.30;99.90;;;;;;5060252;28;20043;-57
2022/12/02 07:11:49;;;;;;;73.43;31.92;;;3.30;99.90;;;;;;5083301;28;20039;-54
2022/12/02 07:14:26;;;;;;;74.93;30.77;;;3.20;99.90;;;;;;5085195;28;20036;-58
2022/12/02 07:16:53;;;;;;;73.70;33.28;;;3.20;99.90;;;;;;5071470;28;20051;-58
2022/12/02 07:19:26;;;;;;;69.63;30.00;;;3.30;99.90;;;;;;5071292;28;20068;-55
2022/12/02 07:21:51;;;;;;;68.55;32.28;;;3.30;99.90;;;;;;5071386;28;20080;-59
2022/12/02 07:24:19;;;;;;;66.27;29.53;;;3.20;99.90;;;;;;5071072;28;20078;-55
2022/12/02 07:26:46;;;;;;;74.10;33.30;;;3.30;99.90;;;;;;5063960;28;20036;-57
2022/12/02 07:29:32;;;;;;;66.40;30.55;;;3.20;99.90;;;;;;5051045;28;20051;-59
2022/12/02 07:31:57;;;;;;;72.25;31.20;;;3.20;99.90;;;;;;5051034;28;20323;-53
2022/12/02 07:34:23;;;;;;;72.37;31.57;;;3.20;99.90;;;;;;5051125;28;20044;-54
2022/12/02 07:36:49;;;;;;;63.33;29.87;;;3.20;99.90;;;;;;5051272;28;20044;-52
2022/12/02 07:39:14;;;;;;;75.67;33.63;;;3.20;99.90;;;;;;5068401;28;20444;-57
2022/12/02 07:41:40;;;;;;;75.97;33.23;;;3.20;99.90;;;;;;5069120;28;20064;-54
2022/12/02 07:44:05;;;;;;;72.53;31.80;;;3.20;99.90;;;;;;5053962;28;20044;-55
2022/12/02 07:46:31;;;;;;;66.00;30.23;;;3.30;99.90;;;;;;5051940;28;20498;-56
2022/12/02 07:48:56;;;;;;;63.40;28.63;;;3.30;99.90;;;;;;5065662;28;20498;-58
2022/12/02 07:51:22;;;;;;;70.83;33.13;;;3.30;99.90;;;;;;5053340;28;20052;-55
2022/12/02 07:53:48;;;;;;;68.00;31.10;;;3.30;99.90;;;;;;5066375;28;20567;-53
2022/12/02 07:56:13;;;;;;;70.30;30.57;;;3.40;99.90;;;;;;5052460;28;20032;-57
2022/12/02 07:58:39;;;;;;;68.63;31.13;;;3.40;99.90;;;;;;5056629;28;20041;-57
2022/12/02 08:01:04;;;;;;;63.60;29.70;;;3.40;99.90;;;;;;5060612;28;20119;-52
2022/12/02 08:03:30;;;;;;;71.23;32.50;;;3.40;99.90;;;;;;5063891;28;20516;-54
2022/12/02 08:05:55;;;;;;;69.33;29.70;;;3.40;99.90;;;;;;5053446;28;20095;-55
2022/12/02 08:08:21;;;;;;;75.60;32.23;;;3.40;99.90;;;;;;5055283;28;20042;-56
2022/12/02 08:10:46;;;;;;;71.87;33.03;;;3.40;99.90;;;;;;5051921;28;20048;-55
2022/12/02 08:13:12;;;;;;;70.07;32.03;;;3.40;99.90;;;;;;5058083;28;20044;-55
2022/12/02 08:15:37;;;;;;;74.30;33.07;;;3.30;99.90;;;;;;5070496;28;20040;-58
2022/12/02 08:18:03;;;;;;;74.40;33.57;;;3.30;99.90;;;;;;5069661;28;20076;-55
2022/12/02 08:20:29;;;;;;;70.17;30.87;;;3.30;99.90;;;;;;5065238;28;20032;-52
2022/12/02 08:22:55;;;;;;;65.80;31.30;;;3.20;99.90;;;;;;5057567;28;20452;-55
2022/12/02 08:25:20;;;;;;;65.30;29.63;;;3.20;99.90;;;;;;5058284;28;20574;-58
2022/12/02 08:27:46;;;;;;;68.73;30.60;;;3.20;99.90;;;;;;5054543;28;20289;-53
2022/12/02 08:30:14;;;;;;;72.93;30.77;;;3.20;99.90;;;;;;5058590;28;20090;-59
2022/12/02 08:32:39;;;;;;;74.47;31.70;;;3.20;99.90;;;;;;5057846;28;20135;-55
2022/12/02 08:35:05;;;;;;;58.97;28.23;;;3.20;99.90;;;;;;5058631;28;20617;-54
2022/12/02 08:37:31;;;;;;;73.40;31.95;;;3.20;99.90;;;;;;5060292;28;20390;-53
2022/12/02 08:39:57;;;;;;;60.67;28.25;;;3.20;99.90;;;;;;5063184;28;20045;-56
2022/12/02 08:42:22;;;;;;;64.33;29.47;;;3.20;99.90;;;;;;5058311;28;20411;-55
2022/12/02 08:44:48;;;;;;;67.60;29.50;;;3.10;99.90;;;;;;5052681;28;20556;-60
2022/12/02 08:47:14;;;;;;;76.30;31.63;;;3.20;99.90;;;;;;5068492;28;20115;-56
2022/12/02 08:49:39;;;;;;;68.93;30.17;;;3.20;99.90;;;;;;5062130;28;20147;-54
2022/12/02 08:52:05;;;;;;;66.00;28.77;;;3.10;99.90;;;;;;5056629;28;20045;-55
2022/12/02 08:54:30;;;;;;;69.13;32.37;;;3.20;99.90;;;;;;5048818;28;20033;-57
2022/12/02 08:56:59;;;;;;;70.40;31.63;;;3.20;99.90;;;;;;5056775;28;20036;-54
2022/12/02 08:59:25;;;;;;;79.40;35.58;;;3.20;99.90;;;;;;5057822;28;20056;-58
2022/12/02 09:01:50;;;;;;;85.53;37.33;;;3.20;99.90;;;;;;5057209;28;20045;-56
2022/12/02 09:04:16;;;;;;;77.70;35.07;;;3.20;99.90;;;;;;5057002;28;20029;-55
2022/12/02 09:06:41;;;;;;;76.87;33.97;;;3.20;99.90;;;;;;5054808;28;20032;-56
2022/12/02 09:09:08;;;;;;;74.70;36.30;;;3.20;99.90;;;;;;5057929;28;20473;-55
2022/12/02 09:11:33;;;;;;;87.55;36.97;;;3.20;99.90;;;;;;5055440;28;20090;-55
2022/12/02 09:13:59;;;;;;;83.10;37.42;;;3.20;99.90;;;;;;5058992;28;20044;-56
2022/12/02 09:16:25;;;;;;;81.20;38.63;;;3.20;99.90;;;;;;5062666;28;20086;-55
2022/12/02 09:18:50;;;;;;;81.20;38.03;;;3.20;99.90;;;;;;5059243;28;20487;-55
2022/12/02 09:21:16;;;;;;;80.68;35.80;;;3.20;99.90;;;;;;5058783;28;20044;-52
2022/12/02 09:23:42;;;;;;;80.67;35.40;;;3.20;99.90;;;;;;5062523;28;20401;-58
2022/12/02 09:26:07;;;;;;;93.93;36.27;;;3.20;99.90;;;;;;5061182;28;20113;-58
2022/12/02 09:28:33;;;;;;;83.87;36.10;;;3.20;99.90;;;;;;5061641;28;20501;-55
2022/12/02 09:30:58;;;;;;;80.80;33.33;;;3.20;99.90;;;;;;5064004;28;20495;-57
2022/12/02 09:33:24;;;;;;;80.97;33.47;;;3.20;99.90;;;;;;5071666;28;20037;-56
2022/12/02 09:35:50;;;;;;;93.10;35.93;;;3.20;99.90;;;;;;5061025;28;20029;-58
2022/12/02 09:38:16;;;;;;;91.57;36.80;;;3.20;99.90;;;;;;5063376;28;20417;-55
2022/12/02 09:40:41;;;;;;;81.75;35.33;;;3.10;99.90;;;;;;5064726;28;20041;-53
2022/12/02 09:43:07;;;;;;;77.67;34.43;;;3.10;99.90;;;;;;5071640;28;20097;-58
2022/12/02 09:45:33;;;;;;;81.90;31.27;;;3.10;99.90;;;;;;5067048;28;20418;-57
2022/12/02 09:47:59;;;;;;;83.22;32.47;;;3.10;99.90;;;;;;5053707;28;20382;-57
2022/12/02 09:50:25;;;;;;;70.60;28.43;;;3.10;99.90;;;;;;5060233;28;20040;-55
2022/12/02 09:52:52;;;;;;;65.95;27.58;;;3.10;99.90;;;;;;5070967;28;20949;-59
2022/12/02 09:55:19;;;;;;;64.88;25.88;;;3.20;99.90;;;;;;5060912;28;20075;-54
2022/12/02 09:57:45;;;;;;;61.80;24.58;;;3.20;99.90;;;;;;5065910;28;20049;-57
2022/12/02 10:00:15;;;;;;;56.90;24.33;;;3.10;99.90;;;;;;5054215;28;20070;-56
2022/12/02 10:02:44;;;;;;;60.63;24.10;;;3.00;99.90;;;;;;5057775;28;20052;-59
2022/12/02 10:05:24;;;;;;;54.08;22.98;;;3.00;99.90;;;;;;5066770;28;20035;-57
2022/12/02 10:07:54;;;;;;;51.60;22.10;;;3.00;99.90;;;;;;5055379;28;20033;-55
2022/12/02 10:10:23;;;;;;;48.60;23.83;;;3.00;99.90;;;;;;5052747;28;20460;-53
2022/12/02 10:12:49;;;;;;;49.90;23.20;;;3.10;99.90;;;;;;5061987;28;20037;-55
2022/12/02 10:15:18;;;;;;;50.50;23.70;;;3.00;99.90;;;;;;5050178;28;20383;-55
2022/12/02 10:17:45;;;;;;;54.03;25.60;;;3.00;99.90;;;;;;5051637;28;20033;-55
2022/12/02 10:20:20;;;;;;;54.53;25.30;;;3.00;99.90;;;;;;5059491;28;20442;-58
2022/12/02 10:23:07;;;;;;;51.50;24.27;;;2.90;99.90;;;;;;5059994;28;20073;-57
2022/12/02 10:25:33;;;;;;;55.67;24.55;;;2.90;99.90;;;;;;5058537;28;20116;-53
2022/12/02 10:27:59;;;;;;;52.25;24.77;;;2.90;99.90;;;;;;5051929;28;20033;-55
2022/12/02 10:30:26;;;;;;;55.67;23.85;;;2.90;99.90;;;;;;5062303;28;20065;-58
2022/12/02 10:33:00;;;;;;;;;;;2.90;99.90;;;;;;5058539;28;20033;-59
2022/12/02 10:35:42;;;;;;;50.13;22.58;;;2.90;99.90;;;;;;5056325;28;19917;-54
2022/12/02 10:38:31;;;;;;;43.47;22.30;;;2.90;99.90;;;;;;5062435;28;20045;-56
2022/12/02 10:41:21;;;;;;;48.35;22.33;;;2.80;99.90;;;;;;5065928;28;20028;-53
2022/12/02 10:43:52;;;;;;;49.72;22.13;;;2.80;99.90;;;;;;5059991;28;20041;-56
2022/12/02 10:46:20;;;;;;;47.40;22.13;;;2.80;99.90;;;;;;5058746;28;20413;-54
2022/12/02 10:48:46;;;;;;;47.63;22.52;;;2.80;99.90;;;;;;5057179;28;20127;-57
2022/12/02 10:51:14;;;;;;;45.70;21.63;;;2.80;99.90;;;;;;5053071;28;20052;-54
2022/12/02 10:53:40;;;;;;;45.85;21.98;;;2.70;99.90;;;;;;5057110;28;20037;-56
2022/12/02 10:56:06;;;;;;;50.47;22.02;;;2.70;99.90;;;;;;5053867;28;20260;-57
2022/12/02 10:58:32;;;;;;;48.88;21.60;;;2.70;99.90;;;;;;5055101;28;20354;-56
2022/12/02 11:00:59;;;;;;;46.43;22.30;;;2.70;99.90;;;;;;5069612;28;20032;-54
2022/12/02 11:03:25;;;;;;;46.03;23.13;;;2.80;99.90;;;;;;5068508;28;20048;-56
2022/12/02 11:05:51;;;;;;;48.33;23.53;;;2.80;99.90;;;;;;5069906;28;20397;-57
2022/12/02 11:08:24;;;;;;;54.10;23.95;;;2.90;99.90;;;;;;5054342;28;20043;-55
2022/12/02 11:11:14;;;;;;;51.85;24.88;;;3.00;99.90;;;;;;5050655;28;21058;-57
2022/12/02 11:13:58;;;;;;;52.05;23.63;;;2.90;99.90;;;;;;5063768;28;20048;-58
2022/12/02 11:16:27;;;;;;;53.22;25.17;;;3.00;99.90;;;;;;5069840;28;20044;-59
2022/12/02 11:19:02;;;;;;;54.22;25.48;;;3.10;99.90;;;;;;5052149;28;20076;-52
2022/12/02 11:21:28;;;;;;;53.00;25.73;;;3.10;99.90;;;;;;5050436;28;20120;-57
2022/12/02 11:24:27;;;;;;;64.10;31.57;;;3.10;99.90;;;;;;5066684;28;20123;-58
2022/12/02 11:26:58;;;;;;;59.65;29.33;;;3.10;99.90;;;;;;5049537;28;20116;-57
2022/12/02 11:29:31;;;;;;;62.47;30.13;;;3.00;99.90;;;;;;5065558;28;20402;-56
2022/12/02 11:32:16;;;;;;;67.22;31.45;;;3.00;99.90;;;;;;5062452;28;20131;-58
2022/12/02 11:34:54;;;;;;;65.53;32.17;;;2.90;99.90;;;;;;5065972;28;20659;-58
2022/12/02 11:37:33;;;;;;;70.85;33.67;;;2.90;99.90;;;;;;5056006;28;20064;-59
2022/12/02 11:40:00;;;;;;;68.65;32.13;;;2.90;99.90;;;;;;5051736;28;20517;-56
2022/12/02 11:42:27;;;;;;;70.25;34.50;;;2.80;99.90;;;;;;5062085;28;20029;-58
2022/12/02 11:45:08;;;;;;;73.43;35.25;;;2.80;99.90;;;;;;5050954;28;20471;-56
2022/12/02 11:47:34;;;;;;;79.50;35.95;;;2.80;99.90;;;;;;5052319;28;20044;-60
2022/12/02 11:50:15;;;;;;;79.53;34.10;;;2.80;99.90;;;;;;5058609;28;20036;-52
2022/12/02 11:52:53;;;;;;;68.90;32.40;;;2.80;99.90;;;;;;5048014;28;20032;-61
2022/12/02 11:55:22;;;;;;;75.55;34.80;;;2.80;99.90;;;;;;5059660;28;20135;-59
2022/12/02 11:57:56;;;;;;;70.43;33.75;;;2.90;99.90;;;;;;5068620;28;20123;-59
2022/12/02 12:00:27;;;;;;;74.22;33.53;;;2.90;99.90;;;;;;5052350;28;20116;-53
2022/12/02 12:03:17;;;;;;;66.13;32.40;;;3.00;99.90;;;;;;5053267;28;20036;-58
2022/12/02 12:06:03;;;;;;;79.30;35.53;;;3.00;99.90;;;;;;5053915;28;20079;-52
2022/12/02 12:08:29;;;;;;;75.13;34.70;;;3.10;99.90;;;;;;5049253;28;20053;-54
2022/12/02 12:11:27;;;;;;;76.22;36.22;;;3.10;99.90;;;;;;5058499;28;20033;-52
2022/12/02 12:14:10;;;;;;;77.20;35.53;;;3.10;99.90;;;;;;5051255;28;20040;-56
2022/12/02 12:16:42;;;;;;;77.60;35.90;;;3.10;99.90;;;;;;5050742;28;20072;-57
2022/12/02 12:19:16;;;;;;;78.20;38.38;;;3.10;99.90;;;;;;5062757;28;20276;-55
2022/12/02 12:21:51;;;;;;;79.43;38.25;;;3.10;99.90;;;;;;5054276;28;20037;-56
2022/12/02 12:24:20;;;;;;;79.63;37.50;;;3.10;99.90;;;;;;5058857;28;20310;-54
2022/12/02 12:26:56;;;;;;;77.07;38.92;;;3.10;99.90;;;;;;5053186;28;20066;-54
2022/12/02 12:29:24;;;;;;;84.30;40.28;;;3.00;99.90;;;;;;5050231;28;20072;-55
2022/12/02 12:31:50;;;;;;;85.68;40.90;;;3.00;99.90;;;;;;5052434;28;20398;-55
2022/12/02 12:34:15;;;;;;;88.90;40.90;;;3.00;99.90;;;;;;5066175;28;20136;-53
2022/12/02 12:36:42;;;;;;;81.77;40.03;;;3.00;99.90;;;;;;5057528;28;20037;-54
2022/12/02 12:39:08;;;;;;;80.65;40.33;;;3.10;99.90;;;;;;5069674;28;20290;-55
2022/12/02 12:41:34;;;;;;;77.60;39.63;;;3.00;99.90;;;;;;5061401;28;20037;-54
2022/12/02 12:44:00;;;;;;;85.68;42.58;;;3.00;99.90;;;;;;5049891;28;20033;-55
2022/12/02 12:46:25;;;;;;;74.57;38.37;;;3.00;99.90;;;;;;5053956;28;20032;-57
2022/12/02 12:48:51;;;;;;;78.80;39.20;;;3.00;99.90;;;;;;5049732;28;20306;-52